Time;durP1;ratioP1;P1;durP2;ratioP2;P2;SDS_P1;SDS_P2;PMS_P1;PMS_P2;Temp;Humidity;BMP_temperature;BMP_pressure;BME280_temperature;BME280_humidity;BME280_pressure;Samples;Min_cycle;Max_cycle;Signal;HPM_P1;HPM_P2
2023/01/16 00:00:12;;;;;;;5.05;1.65;;;7.30;72.80;;;;;;5050549;28;20230;-71
2023/01/16 00:02:40;;;;;;;4.90;1.60;;;7.30;72.70;;;;;;5046519;28;20216;-70
2023/01/16 00:05:08;;;;;;;7.80;2.00;;;7.30;72.80;;;;;;5045826;28;20293;-69
2023/01/16 00:07:36;;;;;;;5.90;2.10;;;7.30;72.70;;;;;;5045700;28;20290;-70
2023/01/16 00:10:06;;;;;;;7.30;1.77;;;7.30;72.80;;;;;;5047632;28;20203;-69
2023/01/16 00:12:35;;;;;;;6.55;2.10;;;7.30;72.80;;;;;;5047957;28;20209;-70
2023/01/16 00:15:03;;;;;;;5.25;1.67;;;7.30;72.90;;;;;;5043362;28;20444;-69
2023/01/16 00:17:31;;;;;;;5.00;1.73;;;7.40;72.90;;;;;;5047956;28;20219;-67
2023/01/16 00:19:59;;;;;;;5.93;1.80;;;7.40;72.80;;;;;;5051409;28;20210;-67
2023/01/16 00:22:27;;;;;;;4.80;1.30;;;7.40;72.80;;;;;;5050879;28;20894;-68
2023/01/16 00:24:55;;;;;;;7.05;1.60;;;7.40;72.90;;;;;;5049994;28;20253;-68
2023/01/16 00:27:23;;;;;;;8.20;1.80;;;7.40;72.60;;;;;;5043014;28;20609;-68
2023/01/16 00:29:52;;;;;;;4.82;1.60;;;7.30;72.70;;;;;;5038170;28;20261;-68
2023/01/16 00:32:20;;;;;;;6.10;1.70;;;7.30;72.80;;;;;;5043260;28;20261;-68
2023/01/16 00:34:48;;;;;;;4.75;1.67;;;7.30;72.70;;;;;;5053433;28;20200;-68
2023/01/16 00:37:16;;;;;;;7.07;1.52;;;7.30;72.80;;;;;;5048018;28;20233;-69
2023/01/16 00:39:44;;;;;;;4.85;1.45;;;7.30;72.70;;;;;;5047890;28;20218;-65
2023/01/16 00:42:12;;;;;;;5.03;2.25;;;7.30;72.80;;;;;;5044193;28;20228;-69
2023/01/16 00:44:40;;;;;;;6.13;1.70;;;7.30;72.90;;;;;;5039399;28;20617;-67
2023/01/16 00:47:11;;;;;;;4.20;1.70;;;7.30;73.00;;;;;;5049421;28;20228;-68
2023/01/16 00:49:39;;;;;;;8.88;1.88;;;7.30;72.80;;;;;;5048218;28;20739;-68
2023/01/16 00:52:07;;;;;;;4.30;1.38;;;7.30;72.80;;;;;;5049675;28;20212;-67
2023/01/16 00:54:34;;;;;;;4.70;1.50;;;7.30;72.90;;;;;;5048988;28;20207;-68
2023/01/16 00:57:02;;;;;;;4.38;1.45;;;7.30;72.90;;;;;;5043014;28;20304;-68
2023/01/16 00:59:30;;;;;;;5.05;1.48;;;7.30;72.90;;;;;;5048364;28;20220;-68
2023/01/16 01:01:58;;;;;;;4.75;1.50;;;7.30;72.90;;;;;;5047450;28;20836;-68
2023/01/16 01:04:29;;;;;;;7.13;1.50;;;7.30;72.90;;;;;;5047465;28;20256;-68
2023/01/16 01:06:57;;;;;;;5.40;1.67;;;7.30;72.90;;;;;;5048166;28;20293;-67
2023/01/16 01:09:25;;;;;;;5.82;1.52;;;7.30;72.90;;;;;;5048395;28;20201;-68
2023/01/16 01:11:53;;;;;;;7.10;1.70;;;7.30;72.90;;;;;;5044836;28;20336;-67
2023/01/16 01:14:21;;;;;;;11.23;1.67;;;7.40;72.90;;;;;;5046238;28;20205;-66
2023/01/16 01:16:49;;;;;;;6.72;1.65;;;7.40;72.90;;;;;;5051813;28;20716;-68
2023/01/16 01:19:17;;;;;;;7.43;1.95;;;7.40;73.00;;;;;;5045934;28;20919;-68
2023/01/16 01:21:46;;;;;;;4.18;1.30;;;7.40;73.00;;;;;;5046731;28;20201;-68
2023/01/16 01:24:14;;;;;;;9.32;1.70;;;7.40;72.80;;;;;;5046143;28;20670;-68
2023/01/16 01:26:42;;;;;;;5.13;1.33;;;7.50;72.90;;;;;;5046788;28;20775;-68
2023/01/16 01:29:10;;;;;;;8.85;2.50;;;7.50;72.70;;;;;;5046156;28;20203;-70
2023/01/16 01:31:38;;;;;;;5.65;1.25;;;7.40;72.60;;;;;;5045193;28;20204;-67
2023/01/16 01:34:06;;;;;;;4.95;1.65;;;7.40;72.70;;;;;;5050330;28;20222;-68
2023/01/16 01:36:34;;;;;;;6.20;1.60;;;7.40;72.60;;;;;;5048815;28;20281;-68
2023/01/16 01:39:03;;;;;;;4.70;1.30;;;7.40;72.70;;;;;;5048361;28;20257;-67
2023/01/16 01:41:31;;;;;;;6.55;1.65;;;7.40;72.80;;;;;;5051504;28;20200;-69
2023/01/16 01:43:59;;;;;;;7.30;1.50;;;7.40;72.70;;;;;;5049819;28;20213;-70
2023/01/16 01:46:43;;;;;;;6.00;1.80;;;7.40;72.50;;;;;;5048273;28;20246;-68
2023/01/16 01:49:25;;;;;;;5.00;1.60;;;7.40;72.60;;;;;;5053053;28;20269;-68
2023/01/16 01:52:04;;;;;;;6.20;1.70;;;7.40;72.60;;;;;;5045745;28;20623;-68
2023/01/16 01:54:47;;;;;;;5.45;1.65;;;7.40;72.60;;;;;;5046475;28;20213;-68
2023/01/16 01:57:30;;;;;;;11.63;2.58;;;7.40;72.70;;;;;;5048069;28;20232;-68
2023/01/16 02:00:07;;;;;;;7.05;1.65;;;7.40;72.60;;;;;;5045690;28;20235;-69
2023/01/16 02:02:51;;;;;;;4.50;1.05;;;7.40;72.50;;;;;;5046315;28;20209;-68
2023/01/16 02:05:30;;;;;;;6.57;1.67;;;7.40;72.50;;;;;;5042098;28;20223;-69
2023/01/16 02:08:17;;;;;;;7.63;1.50;;;7.40;72.50;;;;;;5038883;28;20239;-68
2023/01/16 02:10:52;;;;;;;8.20;1.80;;;7.30;72.30;;;;;;5038787;28;20255;-68
2023/01/16 02:14:15;;;;;;;5.00;1.25;;;7.30;72.40;;;;;;5042001;28;20214;-69
2023/01/16 02:20:07;;;;;;;6.05;1.48;;;7.30;72.50;;;;;;5049075;28;20262;-68
2023/01/16 02:23:14;;;;;;;4.85;1.48;;;7.30;72.40;;;;;;5046104;28;20231;-68
2023/01/16 02:26:20;;;;;;;3.47;1.00;;;7.30;72.30;;;;;;5042829;28;20518;-68
2023/01/16 02:29:21;;;;;;;3.80;1.30;;;7.20;72.40;;;;;;5041195;28;20244;-68
2023/01/16 02:32:23;;;;;;;5.55;1.20;;;7.20;72.40;;;;;;5040272;28;20277;-67
2023/01/16 02:35:14;;;;;;;6.90;1.50;;;7.20;72.40;;;;;;5043630;28;20324;-68
2023/01/16 02:37:59;;;;;;;5.13;1.00;;;7.20;72.30;;;;;;5050130;28;20223;-66
2023/01/16 02:40:47;;;;;;;6.30;1.20;;;7.20;72.10;;;;;;5044483;28;20256;-68
2023/01/16 02:43:35;;;;;;;5.75;1.45;;;7.10;72.20;;;;;;5041257;28;20227;-68
2023/01/16 02:46:22;;;;;;;5.15;1.25;;;7.10;72.20;;;;;;5039464;28;20266;-67
2023/01/16 02:49:16;;;;;;;4.63;1.42;;;7.10;72.30;;;;;;5040466;28;20216;-68
2023/01/16 02:52:11;;;;;;;5.10;1.17;;;7.10;72.40;;;;;;5037393;28;20223;-67
2023/01/16 02:54:52;;;;;;;6.28;1.50;;;7.10;72.40;;;;;;5046209;28;20561;-68
2023/01/16 02:57:35;;;;;;;5.72;1.58;;;7.10;72.40;;;;;;5046270;28;20799;-67
2023/01/16 03:00:16;;;;;;;7.80;1.70;;;7.20;72.30;;;;;;5046777;28;20203;-67
2023/01/16 03:02:58;;;;;;;6.25;1.38;;;7.20;72.30;;;;;;5046590;28;20206;-67
2023/01/16 03:05:51;;;;;;;6.90;1.35;;;7.20;72.30;;;;;;5047751;28;20198;-68
2023/01/16 03:08:44;;;;;;;7.32;1.27;;;7.20;72.30;;;;;;5042330;28;20686;-68
2023/01/16 03:11:34;;;;;;;7.20;1.25;;;7.20;72.30;;;;;;5044198;28;20223;-68
2023/01/16 03:14:18;;;;;;;3.92;1.08;;;7.20;72.30;;;;;;5043506;28;20239;-68
2023/01/16 03:17:01;;;;;;;4.43;1.25;;;7.20;72.30;;;;;;5041955;28;20317;-69
2023/01/16 03:19:44;;;;;;;5.85;1.15;;;7.30;72.30;;;;;;5046036;28;20707;-68
2023/01/16 03:22:17;;;;;;;3.63;1.10;;;7.30;72.20;;;;;;5042456;28;20194;-68
2023/01/16 03:25:02;;;;;;;5.20;1.13;;;7.30;72.30;;;;;;5046889;28;20200;-69
2023/01/16 03:27:41;;;;;;;5.65;1.30;;;7.40;72.40;;;;;;5042078;28;20267;-68
2023/01/16 03:30:16;;;;;;;5.60;1.30;;;7.40;72.30;;;;;;5044718;28;20232;-69
2023/01/16 03:32:50;;;;;;;4.88;1.17;;;7.40;72.30;;;;;;5049379;28;20197;-69
2023/01/16 03:35:23;;;;;;;4.07;1.20;;;7.40;72.20;;;;;;5044843;28;20656;-68
2023/01/16 03:37:56;;;;;;;5.30;1.40;;;7.40;72.10;;;;;;5044099;28;20285;-69
2023/01/16 03:40:28;;;;;;;4.47;1.30;;;7.40;72.10;;;;;;5038061;28;20200;-68
2023/01/16 03:43:01;;;;;;;4.30;1.60;;;7.40;72.00;;;;;;5043013;28;20218;-68
2023/01/16 03:45:34;;;;;;;4.80;1.33;;;7.40;71.90;;;;;;5046233;28;20246;-66
2023/01/16 03:48:06;;;;;;;5.95;1.65;;;7.40;72.10;;;;;;5048810;28;20231;-68
2023/01/16 03:50:36;;;;;;;9.18;1.80;;;7.40;72.00;;;;;;5042595;28;20211;-68
2023/01/16 03:53:11;;;;;;;4.28;1.10;;;7.40;72.00;;;;;;5042304;28;20237;-68
2023/01/16 03:55:43;;;;;;;4.97;1.10;;;7.40;71.90;;;;;;5038153;28;20725;-68
2023/01/16 03:58:19;;;;;;;3.75;1.02;;;7.40;71.90;;;;;;5040873;28;20231;-69
2023/01/16 04:00:58;;;;;;;7.20;1.30;;;7.30;71.90;;;;;;5038222;28;20193;-68
2023/01/16 04:03:34;;;;;;;6.78;1.58;;;7.40;71.90;;;;;;5043703;28;20731;-68
2023/01/16 04:06:11;;;;;;;6.82;1.15;;;7.30;71.80;;;;;;5046238;28;20326;-69
2023/01/16 04:08:42;;;;;;;6.45;1.40;;;7.30;71.90;;;;;;5049610;28;20233;-68
2023/01/16 04:11:12;;;;;;;7.13;1.40;;;7.30;71.90;;;;;;5048123;28;20204;-66
2023/01/16 04:13:43;;;;;;;5.47;1.13;;;7.40;71.90;;;;;;5042675;28;20307;-67
2023/01/16 04:16:17;;;;;;;6.97;1.20;;;7.40;71.90;;;;;;5045580;28;20286;-67
2023/01/16 04:18:46;;;;;;;7.18;1.80;;;7.40;71.90;;;;;;5043946;28;20237;-67
2023/01/16 04:21:14;;;;;;;4.70;1.25;;;7.40;71.90;;;;;;5042358;28;20834;-69
2023/01/16 04:23:44;;;;;;;8.02;2.72;;;7.40;71.60;;;;;;5050631;28;20204;-68
2023/01/16 04:26:12;;;;;;;5.97;1.50;;;7.40;71.60;;;;;;5051503;28;20217;-68
2023/01/16 04:28:40;;;;;;;8.13;1.60;;;7.30;71.70;;;;;;5050138;28;20221;-69
2023/01/16 04:31:08;;;;;;;9.52;1.83;;;7.30;71.70;;;;;;5053310;28;20201;-68
2023/01/16 04:33:36;;;;;;;7.55;2.10;;;7.30;71.60;;;;;;5053788;28;20225;-67
2023/01/16 04:36:04;;;;;;;9.27;1.40;;;7.30;71.60;;;;;;5050427;28;20217;-68
2023/01/16 04:38:32;;;;;;;4.18;1.40;;;7.30;71.60;;;;;;5063515;28;20602;-69
2023/01/16 04:41:01;;;;;;;6.15;1.00;;;7.20;71.50;;;;;;5047465;28;20255;-67
2023/01/16 04:43:29;;;;;;;6.40;1.48;;;7.20;71.50;;;;;;5045926;28;20208;-68
2023/01/16 04:45:57;;;;;;;4.93;1.63;;;7.20;71.60;;;;;;5042335;28;20284;-68
2023/01/16 04:48:25;;;;;;;9.10;1.42;;;7.20;71.50;;;;;;5050384;28;20251;-67
2023/01/16 04:50:53;;;;;;;6.55;2.15;;;7.20;71.60;;;;;;5048330;28;20612;-68
2023/01/16 04:53:21;;;;;;;3.83;1.10;;;7.20;71.50;;;;;;5046158;28;20846;-67
2023/01/16 04:55:49;;;;;;;7.70;1.88;;;7.20;71.50;;;;;;5048569;28;20206;-69
2023/01/16 04:58:18;;;;;;;7.53;2.22;;;7.20;71.50;;;;;;5051623;28;20267;-69
2023/01/16 05:00:46;;;;;;;7.90;1.80;;;7.30;71.50;;;;;;5052164;28;20706;-69
2023/01/16 05:03:14;;;;;;;8.98;2.67;;;7.30;71.50;;;;;;5046671;28;20204;-66
2023/01/16 05:05:43;;;;;;;5.45;1.50;;;7.30;71.50;;;;;;5039567;28;20213;-68
2023/01/16 05:08:17;;;;;;;9.25;2.00;;;7.20;71.40;;;;;;5049844;28;20290;-69
2023/01/16 05:10:45;;;;;;;9.15;1.90;;;7.20;71.40;;;;;;5044306;28;20201;-68
2023/01/16 05:13:13;;;;;;;4.78;1.52;;;7.20;71.40;;;;;;5043791;28;20205;-68
2023/01/16 05:15:45;;;;;;;7.80;1.30;;;7.20;71.50;;;;;;5048745;28;20556;-68
2023/01/16 05:18:13;;;;;;;6.55;1.90;;;7.20;71.40;;;;;;5043019;28;20232;-68
2023/01/16 05:20:41;;;;;;;6.35;1.27;;;7.20;71.40;;;;;;5046662;28;20202;-68
2023/01/16 05:23:10;;;;;;;4.70;1.52;;;7.30;71.50;;;;;;5044455;28;20203;-68
2023/01/16 05:25:38;;;;;;;5.00;1.10;;;7.30;71.50;;;;;;5038253;28;20206;-69
2023/01/16 05:28:06;;;;;;;3.80;1.20;;;7.30;71.20;;;;;;5044145;28;20225;-68
2023/01/16 05:30:35;;;;;;;4.07;1.40;;;7.30;71.20;;;;;;5049969;28;20235;-67
2023/01/16 05:33:05;;;;;;;4.18;1.35;;;7.30;71.40;;;;;;5050864;28;20205;-68
2023/01/16 05:35:33;;;;;;;7.18;1.70;;;7.30;71.20;;;;;;5044555;28;20259;-68
2023/01/16 05:38:07;;;;;;;7.57;1.55;;;7.30;71.20;;;;;;5043407;28;20956;-67
2023/01/16 05:40:34;;;;;;;4.68;1.23;;;7.20;71.00;;;;;;5041772;28;20198;-69
2023/01/16 05:43:04;;;;;;;8.02;1.30;;;7.20;71.10;;;;;;5045538;28;20213;-68
2023/01/16 05:45:32;;;;;;;6.93;2.97;;;7.10;71.10;;;;;;5050321;28;20200;-68
2023/01/16 05:48:00;;;;;;;5.85;1.48;;;7.10;71.20;;;;;;5048805;28;20289;-68
2023/01/16 05:50:29;;;;;;;5.35;1.17;;;7.10;71.20;;;;;;5049262;28;20274;-68
2023/01/16 05:52:57;;;;;;;5.95;1.83;;;7.10;71.20;;;;;;5043323;28;20207;-69
2023/01/16 05:55:27;;;;;;;4.55;1.40;;;7.10;71.30;;;;;;5044159;28;20205;-69
2023/01/16 05:57:55;;;;;;;4.38;1.25;;;7.10;71.40;;;;;;5053204;28;20293;-68
2023/01/16 06:00:24;;;;;;;8.25;1.65;;;7.20;71.50;;;;;;5049489;28;20239;-68
2023/01/16 06:02:52;;;;;;;4.93;1.52;;;7.20;71.30;;;;;;5046737;28;20207;-68
2023/01/16 06:05:20;;;;;;;5.75;2.05;;;7.20;71.30;;;;;;5046460;28;20212;-68
2023/01/16 06:07:54;;;;;;;8.77;1.45;;;7.20;71.10;;;;;;5047153;28;20252;-68
2023/01/16 06:10:22;;;;;;;14.63;3.53;;;7.30;71.10;;;;;;5048098;28;20212;-68
2023/01/16 06:12:50;;;;;;;11.98;1.73;;;7.30;71.10;;;;;;5042738;28;20221;-69
2023/01/16 06:15:18;;;;;;;3.55;1.25;;;7.30;71.10;;;;;;5042886;28;20250;-68
2023/01/16 06:17:46;;;;;;;5.60;1.50;;;7.30;70.80;;;;;;5049712;28;20696;-67
2023/01/16 06:20:14;;;;;;;8.63;2.88;;;7.20;70.90;;;;;;5049485;28;20192;-68
2023/01/16 06:22:44;;;;;;;9.73;2.97;;;7.20;70.90;;;;;;5050154;28;20225;-68
2023/01/16 06:25:13;;;;;;;9.77;3.42;;;7.10;70.90;;;;;;5046565;28;20211;-68
2023/01/16 06:27:41;;;;;;;7.45;2.20;;;7.10;70.90;;;;;;5043799;28;20220;-68
2023/01/16 06:30:10;;;;;;;9.18;2.20;;;7.10;71.00;;;;;;5042978;28;20214;-68
2023/01/16 06:32:38;;;;;;;6.90;2.42;;;7.10;70.90;;;;;;5042996;28;20204;-68
2023/01/16 06:35:07;;;;;;;9.00;2.13;;;7.00;70.80;;;;;;5047716;28;20336;-67
2023/01/16 06:37:35;;;;;;;4.13;1.42;;;7.00;70.90;;;;;;5043168;28;20222;-68
2023/01/16 06:40:03;;;;;;;4.28;1.50;;;7.00;70.90;;;;;;5047046;28;20197;-68
2023/01/16 06:42:32;;;;;;;5.45;1.40;;;6.90;70.90;;;;;;5041538;28;20208;-68
2023/01/16 06:45:00;;;;;;;8.40;2.28;;;7.00;71.00;;;;;;5050398;28;20204;-68
2023/01/16 06:47:28;;;;;;;5.70;1.85;;;6.90;70.80;;;;;;5048542;28;20240;-68
2023/01/16 06:49:56;;;;;;;6.07;2.60;;;6.90;70.80;;;;;;5037972;28;20224;-68
2023/01/16 06:52:24;;;;;;;6.72;2.30;;;6.80;70.70;;;;;;5051126;28;20265;-68
2023/01/16 06:54:52;;;;;;;8.27;2.50;;;6.80;70.70;;;;;;5047688;28;20204;-68
2023/01/16 06:57:20;;;;;;;5.40;2.05;;;6.70;70.70;;;;;;5047289;28;20251;-68
2023/01/16 06:59:50;;;;;;;8.07;3.13;;;6.70;70.70;;;;;;5046205;28;20255;-69
2023/01/16 07:02:18;;;;;;;11.85;4.38;;;6.60;70.70;;;;;;5047215;28;20570;-67
2023/01/16 07:04:46;;;;;;;9.32;3.40;;;6.50;70.90;;;;;;5043980;28;20578;-69
2023/01/16 07:07:14;;;;;;;8.07;2.88;;;6.50;71.00;;;;;;5043124;28;20785;-68
2023/01/16 07:09:41;;;;;;;5.65;2.00;;;6.50;70.80;;;;;;5046467;28;20215;-69
2023/01/16 07:12:09;;;;;;;9.38;3.05;;;6.50;70.90;;;;;;5053019;28;20192;-68
2023/01/16 07:22:56;;;;;;;6.65;2.50;;;6.30;70.90;;;;;;5043073;28;20622;-68
2023/01/16 07:25:32;;;;;;;4.80;1.88;;;6.20;70.90;;;;;;5043121;28;20726;-69
2023/01/16 07:28:01;;;;;;;4.60;1.80;;;6.20;71.00;;;;;;5051454;28;20232;-69
2023/01/16 07:30:29;;;;;;;11.57;3.63;;;6.20;71.00;;;;;;5053204;28;20243;-68
2023/01/16 07:32:59;;;;;;;8.23;2.42;;;6.20;71.10;;;;;;5049433;28;20279;-68
2023/01/16 07:35:27;;;;;;;4.82;2.30;;;6.20;71.00;;;;;;5045835;28;20236;-69
2023/01/16 07:37:56;;;;;;;8.30;3.60;;;6.20;70.90;;;;;;5046541;28;20901;-69
2023/01/16 07:40:24;;;;;;;6.38;2.80;;;6.20;71.00;;;;;;5044025;28;20212;-69
2023/01/16 07:42:52;;;;;;;10.70;3.15;;;6.20;71.10;;;;;;5042151;28;20282;-70
2023/01/16 07:45:21;;;;;;;7.88;3.00;;;6.20;71.10;;;;;;5051798;28;20203;-70
2023/01/16 07:47:49;;;;;;;8.88;3.33;;;6.20;71.10;;;;;;5050124;28;20704;-70
2023/01/16 07:50:19;;;;;;;7.25;3.50;;;6.20;71.10;;;;;;5052458;28;20234;-70
2023/01/16 07:52:46;;;;;;;9.80;3.63;;;6.20;71.10;;;;;;5053233;28;20673;-70
2023/01/16 07:55:16;;;;;;;10.13;2.40;;;6.20;71.10;;;;;;5049752;28;20603;-70
2023/01/16 07:57:44;;;;;;;8.43;2.92;;;6.30;71.10;;;;;;5049806;28;20224;-69
2023/01/16 08:00:13;;;;;;;6.45;1.83;;;6.30;71.00;;;;;;5052239;28;20929;-70
2023/01/16 08:02:42;;;;;;;5.28;2.00;;;6.20;71.00;;;;;;5046177;28;20220;-70
2023/01/16 08:05:11;;;;;;;9.85;2.45;;;6.20;70.90;;;;;;5051692;28;20212;-70
2023/01/16 08:07:40;;;;;;;14.88;4.97;;;6.20;70.90;;;;;;5049407;28;20789;-70
2023/01/16 08:10:09;;;;;;;6.93;2.70;;;6.10;70.90;;;;;;5050693;28;20232;-69
2023/01/16 08:12:38;;;;;;;5.70;2.47;;;6.10;70.90;;;;;;5050512;28;20568;-70
2023/01/16 08:15:07;;;;;;;3.83;1.55;;;6.10;70.80;;;;;;5050666;28;20209;-69
2023/01/16 08:17:39;;;;;;;8.00;2.22;;;6.00;70.90;;;;;;5047754;28;20228;-70
2023/01/16 08:20:08;;;;;;;7.15;3.38;;;5.90;71.00;;;;;;5052209;28;20287;-70
2023/01/16 08:22:36;;;;;;;5.78;2.95;;;5.90;71.00;;;;;;5045538;28;20270;-69
2023/01/16 08:25:06;;;;;;;8.27;2.42;;;5.90;71.20;;;;;;5049919;28;20561;-71
2023/01/16 08:27:37;;;;;;;7.90;2.63;;;5.80;71.20;;;;;;5051748;28;20220;-70
2023/01/16 08:30:06;;;;;;;9.23;2.70;;;5.80;71.40;;;;;;5053587;28;20262;-70
2023/01/16 08:32:34;;;;;;;8.00;2.63;;;5.80;71.40;;;;;;5046213;28;20263;-70
2023/01/16 08:35:04;;;;;;;7.30;2.47;;;5.80;71.60;;;;;;5038555;28;20219;-70
2023/01/16 08:37:33;;;;;;;6.03;1.92;;;5.80;71.60;;;;;;5058551;28;20228;-71
2023/01/16 08:40:01;;;;;;;12.95;4.55;;;5.80;71.60;;;;;;5054223;28;20180;-72
2023/01/16 08:53:36;;;;;;;8.90;3.97;;;5.90;71.70;;;;;;5034041;28;20312;-70
2023/01/16 08:56:05;;;;;;;79.07;25.55;;;5.90;71.80;;;;;;5052223;28;20712;-70
2023/01/16 08:58:34;;;;;;;9.98;2.60;;;6.00;71.60;;;;;;5045943;28;20220;-71
2023/01/16 09:01:02;;;;;;;9.23;3.80;;;6.00;71.60;;;;;;5047255;28;20219;-71
2023/01/16 09:03:30;;;;;;;96.32;22.67;;;6.00;71.70;;;;;;5047721;28;20197;-70
2023/01/16 09:05:58;;;;;;;4.82;1.60;;;6.00;71.70;;;;;;5043081;28;20219;-71
2023/01/16 09:08:26;;;;;;;17.73;5.72;;;6.00;71.40;;;;;;5043152;28;20217;-71
2023/01/16 09:13:52;;;;;;;92.18;24.30;;;6.10;71.40;;;;;;5008719;28;20739;-71
2023/01/16 09:16:22;;;;;;;62.72;15.38;;;6.00;71.60;;;;;;5039971;28;20216;-71
2023/01/16 09:18:50;;;;;;;78.28;17.63;;;6.10;71.70;;;;;;5047119;28;21073;-70
2023/01/16 09:21:19;;;;;;;150.05;34.00;;;6.10;71.40;;;;;;5050410;28;20266;-70
2023/01/16 09:23:47;;;;;;;112.72;30.52;;;6.20;71.40;;;;;;5055419;28;20220;-70
2023/01/16 09:26:15;;;;;;;170.75;50.97;;;6.20;71.20;;;;;;5047027;28;20202;-70
2023/01/16 09:28:43;;;;;;;76.88;24.33;;;6.20;71.20;;;;;;5044627;28;20673;-70
2023/01/16 09:31:12;;;;;;;62.92;17.20;;;6.20;71.10;;;;;;5044701;28;20216;-71
2023/01/16 09:33:41;;;;;;;25.58;7.82;;;6.20;71.20;;;;;;5046281;28;20233;-71
2023/01/16 09:36:09;;;;;;;77.95;21.48;;;6.20;71.20;;;;;;5050261;28;20208;-70
2023/01/16 09:38:37;;;;;;;77.70;18.52;;;6.30;71.00;;;;;;5056324;28;20221;-70
2023/01/16 09:41:06;;;;;;;21.42;5.30;;;6.30;71.20;;;;;;5048846;28;20201;-70
2023/01/16 09:43:38;;;;;;;75.45;15.25;;;6.30;71.10;;;;;;5040138;28;20201;-70
2023/01/16 09:46:13;;;;;;;47.67;13.40;;;6.40;70.90;;;;;;5043310;28;20200;-71
2023/01/16 09:48:50;;;;;;;22.33;6.88;;;6.40;70.90;;;;;;5046606;28;20219;-71
2023/01/16 09:51:22;;;;;;;35.25;10.80;;;6.40;71.00;;;;;;5042935;28;20220;-71
2023/01/16 09:59:34;;;;;;;10.20;3.00;;;6.50;70.80;;;;;;5022289;28;20247;-69
2023/01/16 10:02:15;;;;;;;8.48;2.55;;;6.60;70.80;;;;;;5049965;28;20258;-69
2023/01/16 10:04:45;;;;;;;66.88;17.90;;;6.60;70.60;;;;;;5045790;28;20208;-72
2023/01/16 10:07:39;;;;;;;36.45;12.10;;;6.70;70.70;;;;;;5057975;28;20916;-71
2023/01/16 10:10:36;;;;;;;38.67;11.60;;;6.70;70.90;;;;;;5042646;28;20240;-70
2023/01/16 10:13:16;;;;;;;28.42;8.75;;;6.80;70.80;;;;;;5040156;28;20308;-70
2023/01/16 10:15:51;;;;;;;18.88;5.82;;;6.90;71.00;;;;;;5054443;28;20198;-70
2023/01/16 10:18:31;;;;;;;69.15;19.10;;;7.00;70.90;;;;;;5041861;28;20258;-70
2023/01/16 10:21:23;;;;;;;39.63;12.00;;;7.10;71.00;;;;;;5046320;28;20262;-70
2023/01/16 10:23:56;;;;;;;13.95;4.85;;;7.20;70.70;;;;;;5054157;28;20730;-70
2023/01/16 10:26:29;;;;;;;28.92;10.90;;;7.30;70.40;;;;;;5054666;28;20549;-70
2023/01/16 10:29:07;;;;;;;16.63;4.20;;;7.30;70.20;;;;;;5048068;28;20228;-69
2023/01/16 10:31:39;;;;;;;10.18;3.55;;;7.30;70.30;;;;;;5044260;28;20212;-70
2023/01/16 10:34:15;;;;;;;11.30;3.22;;;7.30;70.10;;;;;;5044582;28;20212;-69
2023/01/16 10:36:48;;;;;;;9.73;3.08;;;7.40;69.90;;;;;;5046295;28;20244;-71
2023/01/16 10:39:18;;;;;;;5.85;1.83;;;7.40;69.90;;;;;;5046302;28;20690;-70
2023/01/16 10:50:13;;;;;;;8.13;2.50;;;7.10;70.10;;;;;;5046179;28;20205;-70
2023/01/16 10:52:47;;;;;;;8.45;3.45;;;7.00;70.60;;;;;;5038488;28;20217;-70
2023/01/16 10:55:17;;;;;;;6.20;2.22;;;6.90;70.40;;;;;;5039830;28;20204;-69
2023/01/16 10:57:47;;;;;;;5.40;2.13;;;6.80;70.60;;;;;;5048949;28;20220;-70
2023/01/16 11:00:21;;;;;;;4.40;1.73;;;6.70;70.80;;;;;;5047379;28;20258;-70
2023/01/16 11:02:49;;;;;;;7.18;3.33;;;6.70;71.20;;;;;;5043504;28;20262;-70
2023/01/16 11:05:26;;;;;;;7.60;2.55;;;6.70;71.20;;;;;;5046669;28;20230;-70
2023/01/16 11:07:55;;;;;;;6.18;2.63;;;6.70;71.60;;;;;;5049633;28;20251;-70
2023/01/16 11:10:24;;;;;;;9.98;3.50;;;6.60;71.40;;;;;;5046660;28;20709;-70
2023/01/16 11:18:29;;;;;;;8.15;3.10;;;6.60;72.10;;;;;;5042979;28;20282;-70
2023/01/16 11:21:01;;;;;;;6.47;3.30;;;6.60;72.10;;;;;;5047963;28;20204;-69
2023/01/16 11:23:38;;;;;;;4.55;1.95;;;6.60;72.20;;;;;;5054025;28;20274;-70
2023/01/16 11:26:07;;;;;;;7.68;2.70;;;6.50;72.20;;;;;;5049465;28;21009;-70
2023/01/16 11:28:37;;;;;;;6.18;2.30;;;6.40;72.70;;;;;;5043489;28;20592;-70
2023/01/16 11:31:12;;;;;;;8.65;3.30;;;6.30;72.80;;;;;;5044375;28;20204;-70
2023/01/16 11:33:44;;;;;;;5.57;2.00;;;6.30;73.40;;;;;;5041692;28;20247;-70
2023/01/16 11:36:17;;;;;;;5.10;2.28;;;6.20;73.30;;;;;;5044584;28;20573;-70
2023/01/16 11:38:48;;;;;;;5.93;2.47;;;6.20;73.80;;;;;;5050331;28;20221;-70
2023/01/16 11:41:20;;;;;;;5.55;2.00;;;6.20;73.80;;;;;;5051291;28;20208;-70
2023/01/16 11:46:56;;;;;;;4.65;1.67;;;6.20;73.90;;;;;;5041424;28;20213;-69
2023/01/16 11:49:27;;;;;;;3.80;1.00;;;6.20;74.10;;;;;;5041110;28;20579;-70
2023/01/16 11:52:02;;;;;;;5.50;2.35;;;6.20;74.30;;;;;;5048707;28;20217;-70
2023/01/16 11:54:32;;;;;;;3.65;1.17;;;6.30;74.60;;;;;;5045965;28;20200;-70
2023/01/16 11:57:13;;;;;;;5.57;1.40;;;6.30;74.50;;;;;;5045596;28;20217;-70
2023/01/16 11:59:54;;;;;;;6.22;1.40;;;6.40;74.60;;;;;;5049212;28;20573;-70
2023/01/16 12:02:41;;;;;;;5.55;2.20;;;6.40;74.60;;;;;;5051416;28;20196;-70
2023/01/16 12:08:21;;;;;;;9.27;1.63;;;6.40;74.80;;;;;;5051553;28;20325;-70
2023/01/16 12:10:58;;;;;;;5.38;1.40;;;6.50;74.80;;;;;;5065341;28;20215;-70
2023/01/16 12:16:43;;;;;;;3.63;1.30;;;6.60;75.10;;;;;;5005059;28;20203;-70
2023/01/16 12:19:31;;;;;;;3.65;1.25;;;6.50;74.90;;;;;;5042389;28;20226;-70
2023/01/16 12:22:08;;;;;;;4.38;1.10;;;6.50;75.10;;;;;;5043443;28;20201;-70
2023/01/16 12:24:44;;;;;;;3.97;0.90;;;6.50;75.10;;;;;;5055798;28;20841;-70
2023/01/16 12:27:33;;;;;;;3.28;0.88;;;6.60;75.40;;;;;;5055608;28;20236;-69
2023/01/16 12:30:16;;;;;;;3.20;1.00;;;6.50;75.30;;;;;;5055367;28;20650;-69
2023/01/16 12:32:53;;;;;;;3.70;1.23;;;6.40;75.20;;;;;;5053433;28;20219;-71
2023/01/16 12:35:34;;;;;;;3.25;1.10;;;6.40;75.40;;;;;;5052877;28;20601;-70
2023/01/16 12:38:15;;;;;;;4.20;1.10;;;6.40;75.60;;;;;;5045556;28;20238;-71
2023/01/16 12:44:20;;;;;;;3.08;0.90;;;6.40;75.80;;;;;;5046764;28;20214;-70
2023/01/16 12:46:58;;;;;;;3.70;1.13;;;6.30;75.80;;;;;;5046330;28;20785;-70
2023/01/16 12:49:41;;;;;;;3.00;1.00;;;6.30;75.80;;;;;;5047512;28;20257;-70
2023/01/16 12:52:30;;;;;;;4.78;1.30;;;6.20;76.20;;;;;;5045824;28;20208;-70
2023/01/16 12:55:17;;;;;;;3.10;1.08;;;6.20;76.00;;;;;;5046639;28;20201;-70
2023/01/16 12:57:59;;;;;;;4.78;1.30;;;6.20;76.20;;;;;;5042875;28;20227;-71
2023/01/16 13:00:37;;;;;;;3.90;0.90;;;6.20;76.40;;;;;;5039966;28;21012;-70
2023/01/16 13:03:16;;;;;;;3.20;0.90;;;6.20;76.70;;;;;;5043417;28;20224;-70
2023/01/16 13:05:45;;;;;;;3.92;1.40;;;6.10;77.00;;;;;;5044156;28;20202;-70
2023/01/16 13:08:20;;;;;;;9.65;4.15;;;6.10;76.50;;;;;;5047890;28;20235;-70
2023/01/16 13:13:48;;;;;;;4.55;1.27;;;6.20;76.90;;;;;;5045149;28;20353;-70
2023/01/16 13:16:26;;;;;;;4.57;1.33;;;6.30;77.00;;;;;;5045717;28;20205;-70
2023/01/16 13:18:59;;;;;;;4.78;1.20;;;6.40;76.90;;;;;;5042204;28;20243;-70
2023/01/16 13:21:29;;;;;;;3.92;1.20;;;6.40;77.10;;;;;;5044178;28;20676;-68
2023/01/16 13:24:04;;;;;;;4.35;1.20;;;6.50;76.90;;;;;;5042110;28;20208;-70
2023/01/16 13:26:33;;;;;;;4.47;1.25;;;6.40;76.90;;;;;;5044207;28;20219;-70
2023/01/16 13:29:08;;;;;;;4.63;1.55;;;6.40;77.00;;;;;;5045545;28;20220;-70
2023/01/16 13:31:40;;;;;;;4.25;1.48;;;6.50;77.40;;;;;;5030744;28;20204;-70
2023/01/16 13:34:16;;;;;;;8.10;3.35;;;6.60;77.20;;;;;;5022278;28;20693;-71
2023/01/16 13:37:31;;;;;;;4.45;1.30;;;6.60;77.10;;;;;;5028359;28;20200;-71
2023/01/16 13:40:22;;;;;;;4.35;2.00;;;6.70;77.00;;;;;;5046274;28;20200;-71
2023/01/16 13:45:47;;;;;;;5.00;1.60;;;6.70;77.20;;;;;;5041440;28;20681;-71
2023/01/16 13:45:49;;;;;;;4.25;1.55;;;6.70;77.10;;;;;;5040704;28;20204;-70
2023/01/16 13:48:21;;;;;;;3.83;1.83;;;6.80;77.00;;;;;;5048910;28;20231;-70
2023/01/16 13:50:58;;;;;;;3.40;1.10;;;6.80;77.00;;;;;;5046094;28;20207;-70
2023/01/16 13:53:28;;;;;;;5.20;2.30;;;6.80;77.00;;;;;;5042798;28;20692;-70
2023/01/16 13:56:09;;;;;;;6.65;3.83;;;6.80;76.90;;;;;;5037860;28;20200;-70
2023/01/16 13:58:43;;;;;;;3.45;1.30;;;6.80;76.90;;;;;;5040871;28;20228;-71
2023/01/16 14:01:38;;;;;;;3.90;1.40;;;6.70;76.80;;;;;;5046200;28;20209;-71
2023/01/16 14:04:29;;;;;;;7.40;1.95;;;6.70;77.00;;;;;;5040471;28;20200;-69
2023/01/16 14:10:16;;;;;;;3.50;1.10;;;6.80;77.00;;;;;;5048206;28;20208;-70
2023/01/16 14:13:00;;;;;;;4.20;2.15;;;6.80;76.90;;;;;;5048131;28;20208;-69
2023/01/16 14:18:59;;;;;;;6.13;3.13;;;6.80;76.90;;;;;;5051585;28;20599;-70
2023/01/16 14:21:43;;;;;;;5.35;1.80;;;6.70;77.00;;;;;;5051002;28;20203;-70
2023/01/16 14:24:17;;;;;;;4.30;1.27;;;6.80;77.10;;;;;;5040207;28;20267;-70
2023/01/16 14:26:50;;;;;;;3.70;1.25;;;6.80;76.80;;;;;;5039858;28;20766;-69
2023/01/16 14:29:22;;;;;;;4.15;1.23;;;6.90;76.80;;;;;;5042537;28;20195;-69
2023/01/16 14:31:57;;;;;;;3.50;1.35;;;6.90;76.90;;;;;;5045907;28;20209;-69
2023/01/16 14:34:33;;;;;;;4.03;2.08;;;6.90;76.80;;;;;;5043704;28;20747;-70